Time;durP1;ratioP1;P1;durP2;ratioP2;P2;SDS_P1;SDS_P2;PMS_P1;PMS_P2;Temp;Humidity;BMP_temperature;BMP_pressure;BME280_temperature;BME280_humidity;BME280_pressure;Samples;Min_cycle;Max_cycle;Signal;HPM_P1;HPM_P2
2021/01/02 17:21:13;;;;;;;9.63;6.55;;;;;;;2.89;86.14;98957.91;5130024;27;20535;-68
2021/01/02 17:23:40;;;;;;;11.55;6.95;;;;;;;2.95;85.98;98960.38;5129984;28;20226;-66
2021/01/02 17:26:07;;;;;;;11.20;6.55;;;;;;;2.97;85.89;98958.50;5129613;28;20293;-66
2021/01/02 17:28:33;;;;;;;10.57;6.03;;;;;;;2.92;85.66;98947.19;5129259;28;20293;-65
2021/01/02 17:31:00;;;;;;;10.02;6.95;;;;;;;2.99;86.45;98951.34;5128973;28;20201;-66
2021/01/02 17:33:26;;;;;;;17.85;7.25;;;;;;;3.00;85.98;98949.56;5129173;28;20192;-66
2021/01/02 17:35:54;;;;;;;8.00;5.90;;;;;;;3.11;85.79;98945.56;5117569;28;20282;-67
2021/01/02 17:38:21;;;;;;;9.32;5.97;;;;;;;3.12;84.77;98944.66;5111671;28;20295;-66
2021/01/02 17:40:48;;;;;;;10.80;6.13;;;;;;;3.21;84.29;98942.53;5129352;28;20197;-65
2021/01/02 17:43:14;;;;;;;12.52;7.47;;;;;;;3.02;85.29;98940.59;5124913;27;20212;-65
2021/01/02 17:45:41;;;;;;;17.42;7.53;;;;;;;3.00;85.38;98939.78;5118757;27;20287;-65
2021/01/02 17:48:08;;;;;;;11.63;7.40;;;;;;;2.94;84.85;98937.38;5109178;28;20211;-65
2021/01/02 17:50:36;;;;;;;7.80;5.50;;;;;;;3.15;83.18;98943.66;5122753;28;20187;-66
2021/01/02 17:53:03;;;;;;;8.95;5.88;;;;;;;3.20;80.89;98933.69;5109050;28;20204;-66
2021/01/02 17:55:32;;;;;;;8.90;5.38;;;;;;;3.16;80.40;98932.06;5108649;28;20208;-65
2021/01/02 17:58:00;;;;;;;10.05;5.75;;;;;;;3.20;79.82;98927.50;5123648;28;20462;-67
2021/01/02 18:00:27;;;;;;;7.53;5.38;;;;;;;3.18;79.74;98930.22;5128922;28;20224;-67
2021/01/02 18:02:53;;;;;;;7.75;5.22;;;;;;;3.20;79.73;98930.19;5129007;28;20281;-66
2021/01/02 18:05:20;;;;;;;8.23;5.25;;;;;;;3.13;80.51;98927.75;5128901;27;20191;-66
2021/01/02 18:07:46;;;;;;;8.57;5.47;;;;;;;3.05;81.03;98937.81;5128893;27;20285;-65
2021/01/02 18:10:13;;;;;;;8.20;4.88;;;;;;;3.11;80.43;98937.56;5129317;27;20228;-67
2021/01/02 18:12:40;;;;;;;11.60;5.13;;;;;;;3.40;78.93;98937.38;5128925;27;20197;-67
2021/01/02 18:15:08;;;;;;;5.60;4.50;;;;;;;3.28;79.01;98928.94;5128906;27;20228;-66
2021/01/02 18:17:35;;;;;;;9.25;5.18;;;;;;;3.33;78.76;98932.28;5129364;27;20210;-66
2021/01/02 18:20:01;;;;;;;7.63;4.18;;;;;;;3.05;79.35;98923.63;5127516;27;20589;-66
2021/01/02 18:22:28;;;;;;;7.28;4.63;;;;;;;3.08;79.82;98929.72;5114907;28;20557;-67
2021/01/02 18:24:54;;;;;;;6.95;4.43;;;;;;;3.19;79.21;98923.09;5114769;28;20269;-65
2021/01/02 18:27:21;;;;;;;7.75;4.47;;;;;;;3.27;78.51;98921.88;5109185;28;20197;-67
2021/01/02 18:29:51;;;;;;;11.10;4.43;;;;;;;3.23;79.06;98916.75;5094932;28;20193;-67
2021/01/02 18:32:17;;;;;;;5.38;3.67;;;;;;;3.38;78.51;98923.28;5094786;28;20239;-66
2021/01/02 18:34:44;;;;;;;10.77;4.30;;;;;;;3.37;77.95;98917.09;5094236;28;20208;-65
2021/01/02 18:37:11;;;;;;;8.13;4.95;;;;;;;3.25;78.71;98918.41;5094399;28;20304;-65
2021/01/02 18:39:38;;;;;;;7.88;4.60;;;;;;;3.19;79.43;98920.44;5094967;28;20245;-66
2021/01/02 18:42:05;;;;;;;6.22;4.03;;;;;;;3.12;79.89;98923.38;5114343;28;20249;-67
2021/01/02 18:44:33;;;;;;;8.02;4.90;;;;;;;3.05;80.14;98918.31;5114619;28;20222;-66
2021/01/02 18:47:03;;;;;;;9.18;4.28;;;;;;;3.05;80.58;98929.84;5114572;28;20203;-66
2021/01/02 18:49:32;;;;;;;5.68;3.85;;;;;;;2.99;80.47;98937.19;5114413;28;20180;-65
2021/01/02 18:52:01;;;;;;;4.50;3.55;;;;;;;3.29;79.10;98929.81;5113435;28;20195;-65
2021/01/02 18:54:27;;;;;;;4.80;3.38;;;;;;;3.33;79.00;98932.28;5114340;28;21040;-65
2021/01/02 18:56:54;;;;;;;6.88;4.90;;;;;;;3.34;78.93;98938.47;5114429;28;20274;-66
2021/01/02 18:59:21;;;;;;;5.63;3.70;;;;;;;3.41;78.87;98933.78;5114306;28;20207;-67
2021/01/02 19:01:49;;;;;;;6.38;3.95;;;;;;;3.43;77.82;98931.94;5114577;28;20203;-65
2021/01/02 19:04:18;;;;;;;10.15;4.90;;;;;;;3.39;78.03;98925.84;5114218;28;20562;-65
2021/01/02 19:06:48;;;;;;;6.82;4.93;;;;;;;3.19;78.22;98928.44;5114029;28;20201;-67
2021/01/02 19:09:15;;;;;;;5.47;3.97;;;;;;;3.17;78.72;98935.63;5114440;28;20542;-66
2021/01/02 19:11:41;;;;;;;5.63;4.00;;;;;;;3.02;79.37;98937.94;5114314;28;20230;-66
2021/01/02 19:14:08;;;;;;;8.07;3.80;;;;;;;2.98;78.72;98943.41;5113732;28;20240;-66
2021/01/02 19:16:34;;;;;;;6.03;4.13;;;;;;;3.22;76.37;98937.16;5113924;28;20645;-65
2021/01/02 19:19:02;;;;;;;4.63;3.90;;;;;;;2.92;77.17;98944.53;5113510;28;20312;-66
2021/01/02 19:21:36;;;;;;;8.90;4.18;;;;;;;3.03;76.32;98941.44;5113933;28;20276;-66
2021/01/02 19:24:04;;;;;;;9.55;4.53;;;;;;;2.91;76.95;98946.31;5113897;28;20229;-66
2021/01/02 19:26:30;;;;;;;7.72;3.78;;;;;;;2.98;76.42;98946.06;5113904;28;20213;-65
2021/01/02 19:28:57;;;;;;;8.45;4.43;;;;;;;2.96;77.12;98948.78;5113405;28;20203;-65
2021/01/02 19:31:25;;;;;;;7.00;4.72;;;;;;;2.90;76.73;98949.91;5113750;28;20212;-66
2021/01/02 19:33:52;;;;;;;5.95;4.38;;;;;;;2.95;76.89;98941.75;5112667;28;20599;-66
2021/01/02 19:36:29;;;;;;;8.35;5.18;;;;;;;3.09;76.40;98943.88;5114068;28;20190;-66
2021/01/02 19:38:57;;;;;;;10.25;4.57;;;;;;;3.26;75.71;98937.94;5113718;28;20227;-65
2021/01/02 19:41:24;;;;;;;5.22;4.38;;;;;;;3.29;74.90;98937.78;5113615;28;20641;-65
2021/01/02 19:43:50;;;;;;;7.70;3.97;;;;;;;3.33;74.63;98945.59;5112516;28;20232;-64
2021/01/02 19:46:17;;;;;;;5.32;4.30;;;;;;;3.17;74.56;98946.28;5113320;28;20284;-64
2021/01/02 19:48:43;;;;;;;6.22;4.72;;;;;;;3.38;72.62;98948.06;5113943;28;20265;-65
2021/01/02 19:51:10;;;;;;;5.82;4.25;;;;;;;3.22;73.34;98954.94;5113769;28;20202;-66
2021/01/02 19:53:36;;;;;;;7.15;3.83;;;;;;;3.06;74.25;98949.31;5113765;28;20293;-66
2021/01/02 19:56:04;;;;;;;6.20;4.25;;;;;;;3.03;74.34;98955.63;5113518;28;20270;-66
2021/01/02 19:58:31;;;;;;;4.50;3.50;;;;;;;2.97;74.40;98966.50;5112523;28;20257;-64
2021/01/02 20:00:57;;;;;;;6.00;3.95;;;;;;;2.91;75.27;98958.72;5112417;28;21032;-65
2021/01/02 20:03:24;;;;;;;8.43;5.43;;;;;;;3.00;74.87;98955.72;5113304;28;20216;-65
2021/01/02 20:05:50;;;;;;;6.22;4.63;;;;;;;2.84;75.00;98960.75;5112951;28;20314;-64
2021/01/02 20:08:17;;;;;;;6.95;4.38;;;;;;;2.92;75.52;98964.00;5111870;28;20194;-65
2021/01/02 20:10:44;;;;;;;3.90;3.50;;;;;;;3.03;73.58;98962.72;5112859;28;20239;-65
2021/01/02 20:13:11;;;;;;;8.18;4.63;;;;;;;3.00;73.22;98969.03;5112760;28;20198;-66
2021/01/02 20:15:39;;;;;;;6.22;3.83;;;;;;;3.05;73.89;98977.72;5111872;28;20635;-65
2021/01/02 20:18:05;;;;;;;6.22;2.97;;;;;;;2.98;73.68;98980.66;5110846;28;20660;-65
2021/01/02 20:20:32;;;;;;;4.20;3.00;;;;;;;2.88;73.34;98982.78;5112472;28;20236;-65
2021/01/02 20:22:58;;;;;;;6.22;3.78;;;;;;;3.10;72.73;98974.88;5112938;28;20559;-65
2021/01/02 20:25:25;;;;;;;5.93;3.70;;;;;;;3.28;72.03;98973.31;5112959;28;20217;-66
2021/01/02 20:27:51;;;;;;;4.70;3.47;;;;;;;3.13;71.95;98972.97;5109881;28;20199;-66
2021/01/02 20:30:19;;;;;;;5.70;4.07;;;;;;;3.16;72.66;98976.44;5112438;28;20271;-65
2021/01/02 20:32:45;;;;;;;4.38;3.97;;;;;;;3.01;72.43;98968.13;5112630;28;20623;-65
2021/01/02 20:35:12;;;;;;;6.15;3.67;;;;;;;3.05;72.67;98969.75;5112560;28;20199;-65
2021/01/02 20:37:38;;;;;;;6.15;3.92;;;;;;;3.09;72.59;98966.03;5110716;28;20282;-65
2021/01/02 20:40:06;;;;;;;5.57;2.80;;;;;;;3.33;71.56;98958.91;5107653;28;20208;-64
2021/01/02 20:42:33;;;;;;;5.45;2.80;;;;;;;3.62;70.17;98956.00;5106521;28;20200;-64
2021/01/02 20:45:00;;;;;;;5.85;3.90;;;;;;;3.49;69.41;98958.31;5110085;28;20279;-64
2021/01/02 20:47:27;;;;;;;3.15;2.75;;;;;;;3.49;69.77;98952.97;5104560;28;20200;-64
2021/01/02 20:49:53;;;;;;;4.72;2.70;;;;;;;3.51;69.72;98948.47;5105761;28;20192;-66
2021/01/02 20:52:20;;;;;;;6.25;3.00;;;;;;;3.46;69.86;98951.31;5105386;28;20627;-64
2021/01/02 20:54:47;;;;;;;5.40;2.92;;;;;;;3.20;70.46;98951.47;5105985;28;20200;-64
2021/01/02 20:57:15;;;;;;;5.75;3.03;;;;;;;3.09;71.57;98947.41;5105217;28;20227;-66
2021/01/02 20:59:42;;;;;;;3.40;2.90;;;;;;;2.88;72.27;98950.88;5104757;28;20219;-64
2021/01/02 21:02:09;;;;;;;3.17;2.85;;;;;;;3.12;71.44;98947.31;5104719;28;20194;-65
2021/01/02 21:04:36;;;;;;;6.18;2.42;;;;;;;3.27;71.00;98947.63;5106638;28;20192;-64
2021/01/02 21:07:06;;;;;;;4.95;2.90;;;;;;;3.26;70.65;98945.91;5107027;28;20656;-65
2021/01/02 21:09:36;;;;;;;3.35;3.03;;;;;;;3.13;71.11;98950.81;5106904;28;20632;-64
2021/01/02 21:12:05;;;;;;;4.68;2.72;;;;;;;3.24;70.92;98945.97;5106472;28;20530;-65
2021/01/02 21:14:35;;;;;;;6.40;4.50;;;;;;;3.15;71.15;98945.44;5105033;28;20197;-65
2021/01/02 21:17:05;;;;;;;4.15;2.85;;;;;;;3.51;70.08;98940.50;5104897;28;20195;-66
2021/01/02 21:19:33;;;;;;;3.58;2.90;;;;;;;3.54;69.31;98938.56;5104862;28;20228;-65
2021/01/02 21:22:07;;;;;;;3.95;2.30;;;;;;;3.48;69.68;98941.47;5106213;28;20204;-64
2021/01/02 21:24:34;;;;;;;3.40;2.45;;;;;;;3.17;71.11;98931.16;5105419;28;20275;-65
2021/01/02 21:27:09;;;;;;;4.05;2.35;;;;;;;3.29;70.77;98929.81;5105767;28;20500;-65
2021/01/02 21:29:38;;;;;;;5.22;2.80;;;;;;;3.34;70.75;98936.66;5105854;28;20234;-65
2021/01/02 21:32:08;;;;;;;4.47;3.25;;;;;;;3.34;70.32;98926.03;5105789;28;20709;-64
2021/01/02 21:34:35;;;;;;;2.63;1.65;;;;;;;3.38;70.06;98936.56;5104958;28;20674;-65
2021/01/02 21:37:05;;;;;;;3.50;2.30;;;;;;;3.31;70.58;98927.97;5105340;28;20198;-64
2021/01/02 21:39:32;;;;;;;7.45;3.05;;;;;;;3.24;70.91;98927.34;5105052;28;20222;-65
2021/01/02 21:42:02;;;;;;;3.90;2.72;;;;;;;3.31;71.07;98931.47;5105565;28;20184;-65
2021/01/02 21:44:30;;;;;;;3.58;2.42;;;;;;;3.15;70.86;98934.81;5105594;28;20186;-64
2021/01/02 21:47:01;;;;;;;4.57;2.20;;;;;;;3.13;71.65;98925.09;5105567;28;20196;-64
2021/01/02 21:49:28;;;;;;;2.60;2.25;;;;;;;3.24;71.70;98929.13;5104733;28;20237;-65
2021/01/02 21:51:59;;;;;;;2.90;2.60;;;;;;;3.29;71.48;98921.84;5105287;28;20212;-65
2021/01/02 21:54:27;;;;;;;2.47;1.90;;;;;;;3.31;71.35;98917.31;5104611;28;20198;-64
2021/01/02 21:56:56;;;;;;;4.65;3.05;;;;;;;3.16;71.45;98910.78;5108281;28;20187;-65
2021/01/02 21:59:23;;;;;;;3.78;3.28;;;;;;;3.29;71.68;98920.03;5109283;28;20211;-66
2021/01/02 22:01:49;;;;;;;4.60;2.15;;;;;;;3.33;70.81;98911.00;5108511;28;20203;-64
2021/01/02 22:04:16;;;;;;;2.17;2.00;;;;;;;3.32;70.65;98914.59;5107789;28;20288;-64
2021/01/02 22:06:43;;;;;;;2.00;1.80;;;;;;;3.30;71.18;98920.88;5110184;28;20636;-65
2021/01/02 22:09:10;;;;;;;5.78;3.78;;;;;;;3.29;71.54;98920.03;5108996;28;20191;-65
2021/01/02 22:11:38;;;;;;;4.20;2.80;;;;;;;3.32;71.37;98924.34;5108349;28;20203;-66
2021/01/02 22:14:06;;;;;;;8.35;2.67;;;;;;;3.26;71.42;98921.97;5109323;28;20609;-65
2021/01/02 22:16:32;;;;;;;4.15;2.60;;;;;;;3.17;71.40;98923.19;5108721;28;20279;-65
2021/01/02 22:18:59;;;;;;;3.17;2.55;;;;;;;3.15;71.29;98910.88;5108515;28;20191;-65
2021/01/02 22:21:25;;;;;;;3.53;3.25;;;;;;;2.90;72.26;98909.16;5108307;28;20193;-64
2021/01/02 22:23:52;;;;;;;3.47;2.75;;;;;;;3.09;71.49;98915.47;5109668;28;20199;-64
2021/01/02 22:26:21;;;;;;;6.55;3.42;;;;;;;2.91;72.48;98909.06;5108335;28;20203;-64
2021/01/02 22:28:50;;;;;;;3.45;2.63;;;;;;;2.90;73.10;98909.16;5108275;28;20206;-65
2021/01/02 22:31:17;;;;;;;6.90;2.70;;;;;;;3.02;72.42;98900.69;5108061;28;20671;-66
2021/01/02 22:33:44;;;;;;;2.78;2.58;;;;;;;2.96;72.52;98898.25;5108126;28;20251;-66
2021/01/02 22:36:11;;;;;;;3.33;2.30;;;;;;;2.92;72.56;98905.50;5107637;28;20294;-65
2021/01/02 22:38:38;;;;;;;5.70;2.90;;;;;;;3.16;72.11;98896.63;5107994;28;20211;-64
2021/01/02 22:41:04;;;;;;;2.67;2.25;;;;;;;3.17;71.12;98898.38;5107622;28;20242;-65
2021/01/02 22:43:31;;;;;;;3.40;2.78;;;;;;;3.13;71.43;98900.28;5108629;28;20187;-64
2021/01/02 22:45:58;;;;;;;3.75;2.72;;;;;;;3.12;71.18;98898.53;5108057;28;20179;-65
2021/01/02 22:48:25;;;;;;;11.50;2.63;;;;;;;2.93;71.85;98893.06;5108560;28;20191;-65
2021/01/02 22:50:54;;;;;;;2.28;2.10;;;;;;;3.08;71.45;98895.13;5107088;28;20188;-66
2021/01/02 22:53:21;;;;;;;2.40;2.30;;;;;;;2.88;72.31;98892.38;5108585;28;20207;-63
2021/01/02 22:55:48;;;;;;;4.45;3.00;;;;;;;2.92;72.69;98896.66;5107894;28;20278;-66
2021/01/02 22:58:14;;;;;;;3.88;2.70;;;;;;;3.01;72.65;98893.66;5108415;28;20647;-66
2021/01/02 23:00:44;;;;;;;3.97;2.47;;;;;;;3.04;71.78;98890.88;5108655;28;20219;-66
2021/01/02 23:03:12;;;;;;;2.22;2.03;;;;;;;3.22;71.14;98886.63;5107232;28;20552;-64
2021/01/02 23:05:38;;;;;;;2.78;2.15;;;;;;;3.12;71.76;98894.09;5108107;28;20195;-65
2021/01/02 23:08:05;;;;;;;4.40;2.80;;;;;;;3.05;71.74;98895.28;5107367;28;20226;-65
2021/01/02 23:10:32;;;;;;;5.07;2.35;;;;;;;3.19;71.21;98904.47;5107149;28;20180;-64
2021/01/02 23:12:58;;;;;;;2.83;2.40;;;;;;;3.21;71.11;98894.66;5106760;28;20229;-64
2021/01/02 23:15:24;;;;;;;3.10;1.80;;;;;;;3.22;70.86;98891.09;5107381;28;20292;-65
2021/01/02 23:17:51;;;;;;;3.38;1.70;;;;;;;3.06;71.27;98894.34;5107423;27;20179;-65
2021/01/02 23:20:18;;;;;;;7.28;2.63;;;;;;;3.05;71.64;98884.63;5107563;28;20228;-64
2021/01/02 23:22:47;;;;;;;3.17;2.70;;;;;;;2.89;71.93;98881.69;5108090;28;20203;-65
2021/01/02 23:25:15;;;;;;;5.78;3.97;;;;;;;2.80;72.97;98876.69;5107424;28;20232;-65
2021/01/02 23:27:42;;;;;;;4.47;2.97;;;;;;;2.93;72.62;98874.44;5106244;28;20276;-65
2021/01/02 23:30:10;;;;;;;4.65;2.88;;;;;;;3.03;72.42;98877.63;5107193;28;20290;-65
2021/01/02 23:32:37;;;;;;;2.55;2.33;;;;;;;3.00;72.06;98869.75;5106851;28;20203;-65
2021/01/02 23:35:05;;;;;;;3.55;2.55;;;;;;;2.91;72.38;98866.53;5113397;28;20195;-65
2021/01/02 23:37:32;;;;;;;2.88;2.40;;;;;;;2.89;72.77;98864.84;5109536;28;20195;-65
2021/01/02 23:39:58;;;;;;;4.28;3.13;;;;;;;2.71;73.71;98866.41;5106857;28;20616;-66
2021/01/02 23:42:25;;;;;;;3.15;2.10;;;;;;;2.80;73.95;98858.09;5107100;28;20278;-65
2021/01/02 23:44:51;;;;;;;5.75;3.05;;;;;;;2.82;73.86;98866.88;5107258;28;20228;-66
2021/01/02 23:47:17;;;;;;;3.17;2.25;;;;;;;2.89;73.53;98860.44;5107343;28;20563;-66
2021/01/02 23:49:45;;;;;;;3.38;2.30;;;;;;;2.72;73.98;98858.41;5107638;28;20633;-65
2021/01/02 23:52:12;;;;;;;3.40;3.10;;;;;;;2.76;76.08;98851.19;5106841;28;20280;-65
2021/01/02 23:54:40;;;;;;;4.05;2.25;;;;;;;2.80;75.75;98851.91;5108930;28;20260;-65
2021/01/02 23:57:07;;;;;;;4.40;3.00;;;;;;;2.95;73.46;98867.28;5106567;28;20187;-66
2021/01/02 23:59:34;;;;;;;5.47;4.07;;;;;;;2.79;74.21;98850.19;5107212;28;20263;-65
